PST,Max TemperatureF,Mean TemperatureF,Min TemperatureF,Max Dew PointF,MeanDew PointF,Min DewpointF,Max Humidity, Mean Humidity, Min Humidity, Max Sea Level PressureIn, Mean Sea Level PressureIn, Min Sea Level PressureIn, Max VisibilityMiles, Mean VisibilityMiles, Min VisibilityMiles, Max Wind SpeedMPH, Mean Wind SpeedMPH, Max Gust SpeedMPH,PrecipitationIn, CloudCover, Events, WindDirDegrees
2013-2-1,53,45,37,43,39,34,92,82,71,30.40,30.37,30.34,7,3,0,8,3,12,0.01,6,Fog,52
2013-2-2,57,46,34,44,35,30,92,75,57,30.34,30.27,30.23,6,3,0,9,2,26,0.00,0,Fog,95
2013-2-3,50,42,34,45,40,30,89,85,80,30.29,30.24,30.19,5,2,0,8,1,10,0.08,8,Fog-Rain,177
2013-2-4,48,45,42,41,40,39,89,80,71,30.21,30.05,29.82,6,4,0,15,4,26,0.00,8,Fog,156
2013-2-5,50,48,45,45,42,39,86,79,71,29.90,29.79,29.75,6,2,0,22,9,35,1.05,8,Fog-Rain,195
2013-2-6,47,45,42,43,41,38,89,83,76,29.96,29.83,29.65,6,3,1,22,9,35,0.73,8,Rain,148
2013-2-7,47,39,31,41,35,28,92,81,70,30.22,30.01,29.67,6,3,0,23,3,33,0.14,6,Fog-Rain,159
2013-2-8,49,39,29,40,32,26,92,82,71,30.32,30.27,30.21,6,4,0,8,2,10,0.00,5,Fog,38
2013-2-9,49,44,39,45,40,36,92,86,80,30.33,30.28,30.26,7,3,0,7,3,9,0.02,8,Fog,25
2013-2-10,48,40,32,40,36,28,92,84,76,30.38,30.35,30.33,6,3,0,6,1,8,0.01,7,Fog-Rain,103
2013-2-11,50,46,42,46,42,39,89,85,80,30.35,30.33,30.31,5,2,0,8,2,10,0.12,8,Fog-Rain,226
2013-2-12,49,47,44,46,43,41,92,87,82,30.41,30.35,30.32,5,2,0,14,4,20,0.55,8,Fog-Rain,208
2013-2-13,50,46,41,43,40,37,89,80,71,30.48,30.44,30.35,4,3,0,9,4,20,0.01,8,Fog-Rain,225
2013-2-14,52,46,40,46,42,37,92,85,77,30.54,30.50,30.47,6,3,0,8,1,14,0.18,8,Fog-Rain,149
2013-2-15,57,50,43,46,42,39,89,78,66,30.53,30.37,30.18,5,2,0,8,2,15,0.00,7,Fog,291
2013-2-16,51,48,44,43,40,34,92,79,65,30.23,30.19,30.17,4,3,1,17,7,24,0.16,8,Rain,264
2013-2-17,49,43,36,37,35,33,92,76,60,30.24,30.20,30.10,5,4,3,10,3,16,T,5,Rain,225
2013-2-18,46,42,37,40,37,33,86,81,76,30.09,29.85,29.71,6,3,2,12,5,20,0.62,8,Rain,123
2013-2-19,50,42,34,38,34,30,89,78,66,30.01,29.84,29.72,6,4,0,10,4,14,0.00,4,Fog,42
2013-2-20,46,40,34,40,36,30,89,86,82,30.03,29.99,29.94,6,3,0,12,3,16,0.15,7,Fog-Rain,110
2013-2-21,49,43,37,43,38,34,92,84,76,30.06,30.02,29.98,5,2,0,16,5,24,0.60,8,Fog-Rain,207
2013-2-22,49,44,38,45,39,34,93,79,65,30.03,29.81,29.71,6,2,0,23,11,33,2.50,8,Fog-Rain,232
2013-2-23,50,45,40,37,35,33,86,71,56,30.37,30.17,29.91,6,4,2,18,8,28,0.20,7,Rain,291
2013-2-24,47,44,40,45,40,36,92,84,76,30.36,30.11,29.83,6,2,0,20,9,40,2.42,8,Fog-Rain,164
2013-2-25,51,44,37,41,36,33,83,70,56,30.30,30.05,29.86,5,4,2,29,13,38,0.10,7,Rain,266
2013-2-26,45,41,36,39,37,32,89,83,76,30.31,30.19,30.11,7,3,1,17,6,25,0.65,8,Rain,149
2013-2-27,50,44,37,39,37,34,92,77,61,30.28,30.24,30.19,7,4,1,14,4,20,0.04,7,Rain,82
2013-2-28,51,47,42,47,44,37,89,86,82,30.26,30.18,30.11,7,2,0,17,8,26,1.45,8,Fog-Rain,144